sensor_id;sensor_type;location;lat;lon;timestamp;P1;durP1;ratioP1;P2;durP2;ratioP2
77826;SDS011;67016;42.508;25.678;2023-06-10T00:02:03;7.93;;;5.25;;
77826;SDS011;67016;42.508;25.678;2023-06-10T00:04:29;9.30;;;5.57;;
77826;SDS011;67016;42.508;25.678;2023-06-10T00:06:55;6.40;;;5.00;;
77826;SDS011;67016;42.508;25.678;2023-06-10T00:09:20;9.95;;;5.15;;
77826;SDS011;67016;42.508;25.678;2023-06-10T00:11:46;11.40;;;5.22;;
77826;SDS011;67016;42.508;25.678;2023-06-10T00:14:12;8.23;;;5.05;;
77826;SDS011;67016;42.508;25.678;2023-06-10T00:16:39;9.73;;;5.30;;
77826;SDS011;67016;42.508;25.678;2023-06-10T00:19:04;9.82;;;5.72;;
77826;SDS011;67016;42.508;25.678;2023-06-10T00:21:31;7.22;;;4.50;;
77826;SDS011;67016;42.508;25.678;2023-06-10T00:24:05;7.30;;;4.70;;
77826;SDS011;67016;42.508;25.678;2023-06-10T00:26:32;9.82;;;4.95;;
77826;SDS011;67016;42.508;25.678;2023-06-10T00:28:58;5.95;;;4.93;;
77826;SDS011;67016;42.508;25.678;2023-06-10T00:31:24;10.05;;;5.72;;
77826;SDS011;67016;42.508;25.678;2023-06-10T00:33:51;6.18;;;4.93;;
77826;SDS011;67016;42.508;25.678;2023-06-10T00:36:17;8.93;;;5.25;;
77826;SDS011;67016;42.508;25.678;2023-06-10T00:38:43;7.63;;;5.07;;
77826;SDS011;67016;42.508;25.678;2023-06-10T00:41:09;6.45;;;5.13;;
77826;SDS011;67016;42.508;25.678;2023-06-10T00:43:35;9.50;;;5.45;;
77826;SDS011;67016;42.508;25.678;2023-06-10T00:46:00;7.32;;;4.57;;
77826;SDS011;67016;42.508;25.678;2023-06-10T00:48:26;11.00;;;5.32;;
77826;SDS011;67016;42.508;25.678;2023-06-10T00:50:52;6.38;;;5.05;;
77826;SDS011;67016;42.508;25.678;2023-06-10T00:53:18;6.88;;;5.28;;
77826;SDS011;67016;42.508;25.678;2023-06-10T00:55:46;6.03;;;4.68;;
77826;SDS011;67016;42.508;25.678;2023-06-10T00:58:12;8.38;;;4.55;;
77826;SDS011;67016;42.508;25.678;2023-06-10T01:00:38;8.77;;;4.90;;
77826;SDS011;67016;42.508;25.678;2023-06-10T01:03:04;7.38;;;5.05;;
77826;SDS011;67016;42.508;25.678;2023-06-10T01:05:36;5.75;;;4.55;;
77826;SDS011;67016;42.508;25.678;2023-06-10T01:08:19;8.97;;;5.13;;
77826;SDS011;67016;42.508;25.678;2023-06-10T01:10:57;5.68;;;4.88;;
77826;SDS011;67016;42.508;25.678;2023-06-10T01:13:25;7.07;;;4.97;;
77826;SDS011;67016;42.508;25.678;2023-06-10T01:15:54;6.40;;;4.60;;
77826;SDS011;67016;42.508;25.678;2023-06-10T01:18:20;8.48;;;5.47;;
77826;SDS011;67016;42.508;25.678;2023-06-10T01:20:46;8.07;;;5.03;;
77826;SDS011;67016;42.508;25.678;2023-06-10T01:23:13;7.28;;;4.32;;
77826;SDS011;67016;42.508;25.678;2023-06-10T01:25:41;9.00;;;5.13;;
77826;SDS011;67016;42.508;25.678;2023-06-10T01:33:47;11.10;;;4.68;;
77826;SDS011;67016;42.508;25.678;2023-06-10T01:36:15;5.70;;;4.90;;
77826;SDS011;67016;42.508;25.678;2023-06-10T01:38:44;9.23;;;5.03;;
77826;SDS011;67016;42.508;25.678;2023-06-10T01:41:12;8.23;;;4.82;;
77826;SDS011;67016;42.508;25.678;2023-06-10T01:43:38;9.95;;;5.53;;
77826;SDS011;67016;42.508;25.678;2023-06-10T01:46:04;10.05;;;5.32;;
77826;SDS011;67016;42.508;25.678;2023-06-10T01:48:31;6.80;;;5.00;;
77826;SDS011;67016;42.508;25.678;2023-06-10T01:50:57;7.18;;;5.10;;
77826;SDS011;67016;42.508;25.678;2023-06-10T01:53:22;6.65;;;5.03;;
77826;SDS011;67016;42.508;25.678;2023-06-10T01:55:48;8.85;;;5.53;;
77826;SDS011;67016;42.508;25.678;2023-06-10T01:58:14;9.23;;;4.90;;
77826;SDS011;67016;42.508;25.678;2023-06-10T02:00:39;9.50;;;5.18;;
77826;SDS011;67016;42.508;25.678;2023-06-10T02:03:05;6.93;;;4.68;;
77826;SDS011;67016;42.508;25.678;2023-06-10T02:05:31;6.13;;;4.90;;
77826;SDS011;67016;42.508;25.678;2023-06-10T02:07:57;7.45;;;4.78;;
77826;SDS011;67016;42.508;25.678;2023-06-10T02:10:23;9.10;;;5.10;;
77826;SDS011;67016;42.508;25.678;2023-06-10T02:12:49;8.38;;;4.45;;
77826;SDS011;67016;42.508;25.678;2023-06-10T02:15:14;9.05;;;5.18;;
77826;SDS011;67016;42.508;25.678;2023-06-10T02:17:40;7.65;;;4.95;;
77826;SDS011;67016;42.508;25.678;2023-06-10T02:20:06;9.73;;;4.78;;
77826;SDS011;67016;42.508;25.678;2023-06-10T02:22:33;8.02;;;4.78;;
77826;SDS011;67016;42.508;25.678;2023-06-10T02:24:59;6.13;;;4.80;;
77826;SDS011;67016;42.508;25.678;2023-06-10T02:27:24;10.98;;;5.18;;
77826;SDS011;67016;42.508;25.678;2023-06-10T02:29:50;7.25;;;5.50;;
77826;SDS011;67016;42.508;25.678;2023-06-10T02:32:16;6.55;;;5.15;;
77826;SDS011;67016;42.508;25.678;2023-06-10T02:34:42;8.35;;;4.95;;
77826;SDS011;67016;42.508;25.678;2023-06-10T02:37:08;10.45;;;5.38;;
77826;SDS011;67016;42.508;25.678;2023-06-10T02:39:34;8.75;;;4.95;;
77826;SDS011;67016;42.508;25.678;2023-06-10T02:42:00;5.80;;;4.78;;
77826;SDS011;67016;42.508;25.678;2023-06-10T02:44:26;8.50;;;4.90;;
77826;SDS011;67016;42.508;25.678;2023-06-10T02:46:51;9.70;;;4.65;;
77826;SDS011;67016;42.508;25.678;2023-06-10T02:49:17;8.65;;;5.70;;
77826;SDS011;67016;42.508;25.678;2023-06-10T02:51:43;8.73;;;5.68;;
77826;SDS011;67016;42.508;25.678;2023-06-10T02:54:09;8.13;;;5.60;;
77826;SDS011;67016;42.508;25.678;2023-06-10T02:56:35;8.38;;;4.63;;
77826;SDS011;67016;42.508;25.678;2023-06-10T02:59:01;8.38;;;4.57;;
77826;SDS011;67016;42.508;25.678;2023-06-10T03:01:27;7.80;;;5.10;;
77826;SDS011;67016;42.508;25.678;2023-06-10T03:03:53;9.88;;;5.65;;
77826;SDS011;67016;42.508;25.678;2023-06-10T03:06:21;7.93;;;5.53;;
77826;SDS011;67016;42.508;25.678;2023-06-10T03:08:49;7.60;;;5.75;;
77826;SDS011;67016;42.508;25.678;2023-06-10T03:11:15;8.70;;;5.28;;
77826;SDS011;67016;42.508;25.678;2023-06-10T03:13:40;9.50;;;5.47;;
77826;SDS011;67016;42.508;25.678;2023-06-10T03:16:06;6.55;;;5.15;;
77826;SDS011;67016;42.508;25.678;2023-06-10T03:18:32;7.43;;;5.30;;
77826;SDS011;67016;42.508;25.678;2023-06-10T03:20:58;7.68;;;5.00;;
77826;SDS011;67016;42.508;25.678;2023-06-10T03:23:24;11.70;;;5.53;;
77826;SDS011;67016;42.508;25.678;2023-06-10T03:25:49;11.50;;;5.50;;
77826;SDS011;67016;42.508;25.678;2023-06-10T03:28:15;7.68;;;5.30;;
77826;SDS011;67016;42.508;25.678;2023-06-10T03:30:41;9.70;;;5.32;;
77826;SDS011;67016;42.508;25.678;2023-06-10T03:33:06;9.15;;;5.47;;
77826;SDS011;67016;42.508;25.678;2023-06-10T03:35:32;7.70;;;5.30;;
77826;SDS011;67016;42.508;25.678;2023-06-10T03:37:59;7.70;;;5.20;;
77826;SDS011;67016;42.508;25.678;2023-06-10T03:40:25;8.25;;;4.93;;
77826;SDS011;67016;42.508;25.678;2023-06-10T03:42:51;8.07;;;4.68;;
77826;SDS011;67016;42.508;25.678;2023-06-10T03:45:16;8.18;;;5.20;;
77826;SDS011;67016;42.508;25.678;2023-06-10T03:47:42;9.40;;;5.60;;
77826;SDS011;67016;42.508;25.678;2023-06-10T03:50:09;11.88;;;5.35;;
77826;SDS011;67016;42.508;25.678;2023-06-10T03:52:35;6.28;;;4.95;;
77826;SDS011;67016;42.508;25.678;2023-06-10T03:55:02;7.57;;;5.53;;
77826;SDS011;67016;42.508;25.678;2023-06-10T03:57:28;9.07;;;5.18;;
77826;SDS011;67016;42.508;25.678;2023-06-10T03:59:54;12.00;;;5.55;;
77826;SDS011;67016;42.508;25.678;2023-06-10T04:02:21;9.43;;;5.22;;
77826;SDS011;67016;42.508;25.678;2023-06-10T04:04:47;9.13;;;5.22;;
77826;SDS011;67016;42.508;25.678;2023-06-10T04:07:13;10.07;;;5.47;;
77826;SDS011;67016;42.508;25.678;2023-06-10T04:09:39;8.35;;;5.15;;
77826;SDS011;67016;42.508;25.678;2023-06-10T04:12:07;9.95;;;5.63;;
77826;SDS011;67016;42.508;25.678;2023-06-10T04:14:34;7.75;;;5.07;;
77826;SDS011;67016;42.508;25.678;2023-06-10T04:17:02;6.80;;;4.85;;
77826;SDS011;67016;42.508;25.678;2023-06-10T04:19:31;7.38;;;4.82;;
77826;SDS011;67016;42.508;25.678;2023-06-10T04:21:57;7.45;;;4.90;;
77826;SDS011;67016;42.508;25.678;2023-06-10T04:24:25;8.70;;;4.80;;
77826;SDS011;67016;42.508;25.678;2023-06-10T04:26:51;10.30;;;5.03;;
77826;SDS011;67016;42.508;25.678;2023-06-10T04:29:17;6.88;;;5.13;;
77826;SDS011;67016;42.508;25.678;2023-06-10T04:31:42;9.02;;;5.13;;
77826;SDS011;67016;42.508;25.678;2023-06-10T04:34:08;7.97;;;5.13;;
77826;SDS011;67016;42.508;25.678;2023-06-10T04:36:33;7.78;;;5.00;;
77826;SDS011;67016;42.508;25.678;2023-06-10T04:38:59;8.27;;;4.97;;
77826;SDS011;67016;42.508;25.678;2023-06-10T04:41:26;8.82;;;5.85;;
77826;SDS011;67016;42.508;25.678;2023-06-10T04:43:52;6.50;;;5.35;;
77826;SDS011;67016;42.508;25.678;2023-06-10T04:46:18;7.15;;;5.20;;
77826;SDS011;67016;42.508;25.678;2023-06-10T04:48:44;8.23;;;5.75;;
77826;SDS011;67016;42.508;25.678;2023-06-10T04:51:12;9.77;;;5.38;;
77826;SDS011;67016;42.508;25.678;2023-06-10T04:53:38;7.30;;;5.20;;
77826;SDS011;67016;42.508;25.678;2023-06-10T04:56:04;9.07;;;5.40;;
77826;SDS011;67016;42.508;25.678;2023-06-10T04:58:30;6.68;;;4.97;;
77826;SDS011;67016;42.508;25.678;2023-06-10T05:00:55;6.90;;;5.13;;
77826;SDS011;67016;42.508;25.678;2023-06-10T05:03:21;9.65;;;5.43;;
77826;SDS011;67016;42.508;25.678;2023-06-10T05:05:47;7.85;;;5.15;;
77826;SDS011;67016;42.508;25.678;2023-06-10T05:08:12;7.60;;;5.18;;
77826;SDS011;67016;42.508;25.678;2023-06-10T05:10:38;7.28;;;5.30;;
77826;SDS011;67016;42.508;25.678;2023-06-10T05:13:04;10.25;;;5.82;;
77826;SDS011;67016;42.508;25.678;2023-06-10T05:15:30;9.35;;;5.25;;
77826;SDS011;67016;42.508;25.678;2023-06-10T05:17:58;9.43;;;5.90;;
77826;SDS011;67016;42.508;25.678;2023-06-10T05:20:24;9.70;;;5.70;;
77826;SDS011;67016;42.508;25.678;2023-06-10T05:22:50;8.95;;;5.13;;
77826;SDS011;67016;42.508;25.678;2023-06-10T05:25:16;7.75;;;5.70;;
77826;SDS011;67016;42.508;25.678;2023-06-10T05:27:42;8.23;;;5.80;;
77826;SDS011;67016;42.508;25.678;2023-06-10T05:30:09;8.70;;;5.65;;
77826;SDS011;67016;42.508;25.678;2023-06-10T05:32:35;10.82;;;5.65;;
77826;SDS011;67016;42.508;25.678;2023-06-10T05:35:01;10.73;;;5.65;;
77826;SDS011;67016;42.508;25.678;2023-06-10T05:37:28;9.82;;;6.05;;
77826;SDS011;67016;42.508;25.678;2023-06-10T05:39:54;14.10;;;6.93;;
77826;SDS011;67016;42.508;25.678;2023-06-10T05:42:20;13.15;;;6.90;;
77826;SDS011;67016;42.508;25.678;2023-06-10T05:44:45;12.95;;;6.40;;
77826;SDS011;67016;42.508;25.678;2023-06-10T05:47:11;6.97;;;5.65;;
77826;SDS011;67016;42.508;25.678;2023-06-10T05:49:37;8.68;;;6.15;;
77826;SDS011;67016;42.508;25.678;2023-06-10T05:52:02;9.05;;;6.15;;
77826;SDS011;67016;42.508;25.678;2023-06-10T05:54:28;9.55;;;5.93;;
77826;SDS011;67016;42.508;25.678;2023-06-10T05:56:57;6.82;;;5.20;;
77826;SDS011;67016;42.508;25.678;2023-06-10T05:59:22;6.88;;;4.80;;
77826;SDS011;67016;42.508;25.678;2023-06-10T06:01:49;7.10;;;4.85;;
77826;SDS011;67016;42.508;25.678;2023-06-10T06:04:15;8.60;;;4.85;;
77826;SDS011;67016;42.508;25.678;2023-06-10T06:06:41;6.20;;;5.32;;
77826;SDS011;67016;42.508;25.678;2023-06-10T06:09:07;6.43;;;4.63;;
77826;SDS011;67016;42.508;25.678;2023-06-10T06:11:33;6.50;;;5.00;;
77826;SDS011;67016;42.508;25.678;2023-06-10T06:14:00;8.15;;;4.30;;
77826;SDS011;67016;42.508;25.678;2023-06-10T06:16:25;8.77;;;5.15;;
77826;SDS011;67016;42.508;25.678;2023-06-10T06:18:51;8.70;;;5.18;;
77826;SDS011;67016;42.508;25.678;2023-06-10T06:21:17;8.05;;;4.55;;
77826;SDS011;67016;42.508;25.678;2023-06-10T06:23:42;7.60;;;4.97;;
77826;SDS011;67016;42.508;25.678;2023-06-10T06:26:08;6.45;;;4.50;;
77826;SDS011;67016;42.508;25.678;2023-06-10T06:28:33;7.97;;;4.85;;
77826;SDS011;67016;42.508;25.678;2023-06-10T06:30:59;8.70;;;4.13;;
77826;SDS011;67016;42.508;25.678;2023-06-10T06:33:25;10.02;;;4.72;;
77826;SDS011;67016;42.508;25.678;2023-06-10T06:35:51;8.75;;;4.78;;
77826;SDS011;67016;42.508;25.678;2023-06-10T06:38:17;7.05;;;4.15;;
77826;SDS011;67016;42.508;25.678;2023-06-10T06:40:43;6.97;;;4.88;;
77826;SDS011;67016;42.508;25.678;2023-06-10T06:43:08;9.10;;;5.07;;
77826;SDS011;67016;42.508;25.678;2023-06-10T06:45:34;5.35;;;4.40;;
77826;SDS011;67016;42.508;25.678;2023-06-10T06:48:00;5.47;;;4.28;;
77826;SDS011;67016;42.508;25.678;2023-06-10T06:50:25;7.95;;;4.45;;
77826;SDS011;67016;42.508;25.678;2023-06-10T06:52:51;5.63;;;4.57;;
77826;SDS011;67016;42.508;25.678;2023-06-10T06:55:17;7.63;;;4.72;;
77826;SDS011;67016;42.508;25.678;2023-06-10T06:57:42;7.30;;;4.25;;
77826;SDS011;67016;42.508;25.678;2023-06-10T07:00:08;8.70;;;4.20;;
77826;SDS011;67016;42.508;25.678;2023-06-10T07:02:35;4.82;;;4.18;;
77826;SDS011;67016;42.508;25.678;2023-06-10T07:05:01;6.97;;;4.07;;
77826;SDS011;67016;42.508;25.678;2023-06-10T07:07:26;5.25;;;4.10;;
77826;SDS011;67016;42.508;25.678;2023-06-10T07:09:52;6.10;;;3.97;;
77826;SDS011;67016;42.508;25.678;2023-06-10T07:12:18;7.32;;;4.13;;
77826;SDS011;67016;42.508;25.678;2023-06-10T07:14:44;5.75;;;3.92;;
77826;SDS011;67016;42.508;25.678;2023-06-10T07:17:10;7.43;;;4.32;;
77826;SDS011;67016;42.508;25.678;2023-06-10T07:19:35;7.68;;;4.05;;
77826;SDS011;67016;42.508;25.678;2023-06-10T07:22:01;7.13;;;4.32;;
77826;SDS011;67016;42.508;25.678;2023-06-10T07:24:27;7.68;;;3.78;;
77826;SDS011;67016;42.508;25.678;2023-06-10T07:26:52;5.35;;;3.97;;
77826;SDS011;67016;42.508;25.678;2023-06-10T07:29:18;6.80;;;4.60;;
77826;SDS011;67016;42.508;25.678;2023-06-10T07:31:44;7.32;;;4.18;;
77826;SDS011;67016;42.508;25.678;2023-06-10T07:34:09;6.53;;;3.80;;
77826;SDS011;67016;42.508;25.678;2023-06-10T07:36:35;7.53;;;3.65;;
77826;SDS011;67016;42.508;25.678;2023-06-10T07:39:02;7.28;;;3.83;;
77826;SDS011;67016;42.508;25.678;2023-06-10T07:41:27;4.90;;;3.80;;
77826;SDS011;67016;42.508;25.678;2023-06-10T07:43:53;5.82;;;4.10;;
77826;SDS011;67016;42.508;25.678;2023-06-10T07:46:22;6.03;;;3.92;;
77826;SDS011;67016;42.508;25.678;2023-06-10T07:48:48;6.15;;;4.20;;
77826;SDS011;67016;42.508;25.678;2023-06-10T07:51:17;6.05;;;4.40;;
77826;SDS011;67016;42.508;25.678;2023-06-10T07:53:42;10.63;;;4.65;;
77826;SDS011;67016;42.508;25.678;2023-06-10T07:56:08;6.65;;;4.93;;
77826;SDS011;67016;42.508;25.678;2023-06-10T07:58:34;6.32;;;4.13;;
77826;SDS011;67016;42.508;25.678;2023-06-10T08:01:00;6.50;;;4.28;;
77826;SDS011;67016;42.508;25.678;2023-06-10T08:03:25;5.43;;;3.83;;
77826;SDS011;67016;42.508;25.678;2023-06-10T08:05:51;7.00;;;3.95;;
77826;SDS011;67016;42.508;25.678;2023-06-10T08:08:16;4.47;;;4.05;;
77826;SDS011;67016;42.508;25.678;2023-06-10T08:10:42;7.32;;;4.28;;
77826;SDS011;67016;42.508;25.678;2023-06-10T08:13:08;6.90;;;4.43;;
77826;SDS011;67016;42.508;25.678;2023-06-10T08:15:34;10.15;;;4.60;;
77826;SDS011;67016;42.508;25.678;2023-06-10T08:17:59;7.38;;;4.70;;
77826;SDS011;67016;42.508;25.678;2023-06-10T08:20:25;10.90;;;4.28;;
77826;SDS011;67016;42.508;25.678;2023-06-10T08:22:51;6.60;;;4.35;;
77826;SDS011;67016;42.508;25.678;2023-06-10T08:25:16;6.90;;;4.43;;
77826;SDS011;67016;42.508;25.678;2023-06-10T08:27:42;4.60;;;4.13;;
77826;SDS011;67016;42.508;25.678;2023-06-10T08:30:08;9.10;;;5.47;;
77826;SDS011;67016;42.508;25.678;2023-06-10T08:32:36;10.05;;;4.70;;
77826;SDS011;67016;42.508;25.678;2023-06-10T08:35:02;6.45;;;4.22;;
77826;SDS011;67016;42.508;25.678;2023-06-10T08:37:28;9.63;;;4.97;;
77826;SDS011;67016;42.508;25.678;2023-06-10T08:39:54;7.47;;;4.70;;
77826;SDS011;67016;42.508;25.678;2023-06-10T08:42:24;6.78;;;4.43;;
77826;SDS011;67016;42.508;25.678;2023-06-10T08:44:53;6.78;;;4.80;;
77826;SDS011;67016;42.508;25.678;2023-06-10T08:47:24;10.05;;;4.47;;
77826;SDS011;67016;42.508;25.678;2023-06-10T08:49:50;5.45;;;4.55;;
77826;SDS011;67016;42.508;25.678;2023-06-10T08:52:18;7.25;;;5.15;;
77826;SDS011;67016;42.508;25.678;2023-06-10T08:54:58;12.45;;;4.15;;
77826;SDS011;67016;42.508;25.678;2023-06-10T08:57:25;6.47;;;4.13;;
77826;SDS011;67016;42.508;25.678;2023-06-10T08:59:55;9.02;;;4.47;;
77826;SDS011;67016;42.508;25.678;2023-06-10T09:02:22;4.60;;;3.85;;
77826;SDS011;67016;42.508;25.678;2023-06-10T09:04:49;6.75;;;3.92;;
77826;SDS011;67016;42.508;25.678;2023-06-10T09:07:15;7.75;;;4.10;;
77826;SDS011;67016;42.508;25.678;2023-06-10T09:09:42;6.07;;;4.20;;
77826;SDS011;67016;42.508;25.678;2023-06-10T09:12:10;8.47;;;4.10;;
77826;SDS011;67016;42.508;25.678;2023-06-10T09:14:38;6.38;;;4.40;;
77826;SDS011;67016;42.508;25.678;2023-06-10T09:17:04;7.70;;;4.55;;
77826;SDS011;67016;42.508;25.678;2023-06-10T09:19:31;10.45;;;4.25;;
77826;SDS011;67016;42.508;25.678;2023-06-10T09:21:56;10.88;;;4.32;;
77826;SDS011;67016;42.508;25.678;2023-06-10T09:24:23;8.35;;;4.18;;
77826;SDS011;67016;42.508;25.678;2023-06-10T09:26:49;10.07;;;4.10;;
77826;SDS011;67016;42.508;25.678;2023-06-10T09:29:16;4.85;;;3.80;;
77826;SDS011;67016;42.508;25.678;2023-06-10T09:31:42;7.13;;;4.03;;
77826;SDS011;67016;42.508;25.678;2023-06-10T09:34:12;9.05;;;4.53;;
77826;SDS011;67016;42.508;25.678;2023-06-10T09:36:39;5.95;;;3.72;;
77826;SDS011;67016;42.508;25.678;2023-06-10T09:39:13;4.97;;;4.13;;
77826;SDS011;67016;42.508;25.678;2023-06-10T09:41:41;12.57;;;4.18;;
77826;SDS011;67016;42.508;25.678;2023-06-10T09:44:11;7.32;;;4.10;;
77826;SDS011;67016;42.508;25.678;2023-06-10T09:46:41;4.68;;;3.63;;
77826;SDS011;67016;42.508;25.678;2023-06-10T09:49:07;6.65;;;3.75;;
77826;SDS011;67016;42.508;25.678;2023-06-10T09:51:33;8.40;;;4.00;;
77826;SDS011;67016;42.508;25.678;2023-06-10T09:53:59;6.63;;;3.88;;
77826;SDS011;67016;42.508;25.678;2023-06-10T09:56:34;6.68;;;3.88;;
77826;SDS011;67016;42.508;25.678;2023-06-10T09:59:01;5.78;;;3.78;;
77826;SDS011;67016;42.508;25.678;2023-06-10T10:01:27;6.68;;;4.38;;
77826;SDS011;67016;42.508;25.678;2023-06-10T10:03:53;10.15;;;3.80;;
77826;SDS011;67016;42.508;25.678;2023-06-10T10:06:19;6.13;;;4.00;;
77826;SDS011;67016;42.508;25.678;2023-06-10T10:08:46;7.00;;;3.70;;
77826;SDS011;67016;42.508;25.678;2023-06-10T10:11:14;8.30;;;4.00;;
77826;SDS011;67016;42.508;25.678;2023-06-10T10:13:41;5.32;;;3.95;;
77826;SDS011;67016;42.508;25.678;2023-06-10T10:16:11;9.35;;;4.25;;
77826;SDS011;67016;42.508;25.678;2023-06-10T10:18:41;6.45;;;3.83;;
77826;SDS011;67016;42.508;25.678;2023-06-10T10:21:12;7.55;;;3.90;;
77826;SDS011;67016;42.508;25.678;2023-06-10T10:23:40;8.50;;;4.10;;
77826;SDS011;67016;42.508;25.678;2023-06-10T10:26:14;5.75;;;3.55;;
77826;SDS011;67016;42.508;25.678;2023-06-10T10:28:41;9.50;;;4.07;;
77826;SDS011;67016;42.508;25.678;2023-06-10T10:31:12;5.10;;;4.32;;
77826;SDS011;67016;42.508;25.678;2023-06-10T10:33:54;6.32;;;3.83;;
77826;SDS011;67016;42.508;25.678;2023-06-10T10:36:22;7.28;;;4.20;;
77826;SDS011;67016;42.508;25.678;2023-06-10T10:38:48;7.70;;;4.00;;
77826;SDS011;67016;42.508;25.678;2023-06-10T10:41:15;4.38;;;3.60;;
77826;SDS011;67016;42.508;25.678;2023-06-10T10:43:41;7.70;;;4.30;;
77826;SDS011;67016;42.508;25.678;2023-06-10T10:46:11;7.32;;;4.18;;
77826;SDS011;67016;42.508;25.678;2023-06-10T10:48:38;8.50;;;4.18;;
77826;SDS011;67016;42.508;25.678;2023-06-10T10:51:04;8.05;;;3.75;;
77826;SDS011;67016;42.508;25.678;2023-06-10T10:53:29;9.27;;;3.78;;
77826;SDS011;67016;42.508;25.678;2023-06-10T10:56:05;6.97;;;4.38;;
77826;SDS011;67016;42.508;25.678;2023-06-10T10:58:32;8.43;;;4.05;;
77826;SDS011;67016;42.508;25.678;2023-06-10T11:00:59;5.43;;;3.35;;
77826;SDS011;67016;42.508;25.678;2023-06-10T11:03:28;5.50;;;3.67;;
77826;SDS011;67016;42.508;25.678;2023-06-10T11:05:56;10.70;;;3.83;;
77826;SDS011;67016;42.508;25.678;2023-06-10T11:10:54;6.50;;;3.92;;
77826;SDS011;67016;42.508;25.678;2023-06-10T11:13:20;8.70;;;3.85;;
77826;SDS011;67016;42.508;25.678;2023-06-10T11:15:47;6.28;;;3.80;;
77826;SDS011;67016;42.508;25.678;2023-06-10T11:18:26;6.50;;;3.75;;
77826;SDS011;67016;42.508;25.678;2023-06-10T11:20:57;13.40;;;4.13;;
77826;SDS011;67016;42.508;25.678;2023-06-10T11:31:18;4.07;;;3.67;;
77826;SDS011;67016;42.508;25.678;2023-06-10T11:33:46;7.95;;;3.63;;
77826;SDS011;67016;42.508;25.678;2023-06-10T11:36:13;7.22;;;3.72;;
77826;SDS011;67016;42.508;25.678;2023-06-10T11:38:40;9.05;;;3.95;;
77826;SDS011;67016;42.508;25.678;2023-06-10T11:41:06;8.07;;;3.80;;
77826;SDS011;67016;42.508;25.678;2023-06-10T11:43:33;4.85;;;3.90;;
77826;SDS011;67016;42.508;25.678;2023-06-10T11:45:59;7.28;;;3.95;;
77826;SDS011;67016;42.508;25.678;2023-06-10T11:48:25;7.50;;;4.43;;
77826;SDS011;67016;42.508;25.678;2023-06-10T11:50:53;5.00;;;3.60;;
77826;SDS011;67016;42.508;25.678;2023-06-10T11:53:19;5.10;;;3.95;;
77826;SDS011;67016;42.508;25.678;2023-06-10T11:55:46;6.03;;;4.00;;
77826;SDS011;67016;42.508;25.678;2023-06-10T11:58:33;6.90;;;3.83;;
77826;SDS011;67016;42.508;25.678;2023-06-10T12:00:58;9.57;;;4.43;;
77826;SDS011;67016;42.508;25.678;2023-06-10T12:03:26;9.20;;;3.97;;
77826;SDS011;67016;42.508;25.678;2023-06-10T12:05:56;7.35;;;4.65;;
77826;SDS011;67016;42.508;25.678;2023-06-10T12:08:23;6.00;;;4.45;;
77826;SDS011;67016;42.508;25.678;2023-06-10T12:10:49;9.10;;;4.10;;
77826;SDS011;67016;42.508;25.678;2023-06-10T12:13:14;5.85;;;4.22;;
77826;SDS011;67016;42.508;25.678;2023-06-10T12:15:40;8.07;;;4.32;;
77826;SDS011;67016;42.508;25.678;2023-06-10T12:18:07;5.45;;;4.00;;
77826;SDS011;67016;42.508;25.678;2023-06-10T12:20:32;6.90;;;4.28;;
77826;SDS011;67016;42.508;25.678;2023-06-10T12:22:59;5.88;;;4.38;;
77826;SDS011;67016;42.508;25.678;2023-06-10T12:25:26;5.78;;;4.30;;
77826;SDS011;67016;42.508;25.678;2023-06-10T12:27:53;7.50;;;4.22;;
77826;SDS011;67016;42.508;25.678;2023-06-10T12:30:20;6.15;;;4.25;;
77826;SDS011;67016;42.508;25.678;2023-06-10T12:32:47;6.38;;;3.90;;
77826;SDS011;67016;42.508;25.678;2023-06-10T12:35:16;6.10;;;3.80;;
77826;SDS011;67016;42.508;25.678;2023-06-10T12:37:43;7.70;;;3.85;;
77826;SDS011;67016;42.508;25.678;2023-06-10T12:40:25;7.93;;;4.45;;
77826;SDS011;67016;42.508;25.678;2023-06-10T12:42:54;8.00;;;4.47;;
77826;SDS011;67016;42.508;25.678;2023-06-10T12:45:36;7.90;;;4.43;;
77826;SDS011;67016;42.508;25.678;2023-06-10T12:50:32;5.53;;;4.32;;
77826;SDS011;67016;42.508;25.678;2023-06-10T12:52:58;6.60;;;4.10;;
77826;SDS011;67016;42.508;25.678;2023-06-10T12:55:25;5.75;;;4.30;;
77826;SDS011;67016;42.508;25.678;2023-06-10T12:57:51;8.65;;;4.10;;
77826;SDS011;67016;42.508;25.678;2023-06-10T13:00:17;6.78;;;4.40;;
77826;SDS011;67016;42.508;25.678;2023-06-10T13:02:43;8.15;;;4.63;;
77826;SDS011;67016;42.508;25.678;2023-06-10T13:05:09;8.45;;;4.28;;
77826;SDS011;67016;42.508;25.678;2023-06-10T13:07:34;4.88;;;3.80;;
77826;SDS011;67016;42.508;25.678;2023-06-10T13:10:00;9.65;;;3.97;;
77826;SDS011;67016;42.508;25.678;2023-06-10T13:12:27;7.72;;;4.13;;
77826;SDS011;67016;42.508;25.678;2023-06-10T13:17:21;9.85;;;3.78;;
77826;SDS011;67016;42.508;25.678;2023-06-10T13:19:47;7.97;;;4.18;;
77826;SDS011;67016;42.508;25.678;2023-06-10T13:22:14;8.18;;;3.90;;
77826;SDS011;67016;42.508;25.678;2023-06-10T13:24:39;7.75;;;3.95;;
77826;SDS011;67016;42.508;25.678;2023-06-10T13:27:06;6.40;;;4.20;;
77826;SDS011;67016;42.508;25.678;2023-06-10T13:29:32;6.72;;;4.22;;
77826;SDS011;67016;42.508;25.678;2023-06-10T13:31:58;5.10;;;3.88;;
77826;SDS011;67016;42.508;25.678;2023-06-10T13:34:24;21.35;;;5.22;;
77826;SDS011;67016;42.508;25.678;2023-06-10T13:36:49;9.55;;;4.30;;
77826;SDS011;67016;42.508;25.678;2023-06-10T13:39:15;5.07;;;4.28;;
77826;SDS011;67016;42.508;25.678;2023-06-10T13:41:41;8.48;;;3.55;;
77826;SDS011;67016;42.508;25.678;2023-06-10T13:44:07;5.57;;;3.95;;
77826;SDS011;67016;42.508;25.678;2023-06-10T13:46:32;5.85;;;4.03;;
77826;SDS011;67016;42.508;25.678;2023-06-10T13:48:58;10.77;;;4.72;;
77826;SDS011;67016;42.508;25.678;2023-06-10T13:51:24;9.43;;;3.88;;
77826;SDS011;67016;42.508;25.678;2023-06-10T13:53:49;5.85;;;3.85;;
77826;SDS011;67016;42.508;25.678;2023-06-10T13:56:17;7.78;;;3.60;;
77826;SDS011;67016;42.508;25.678;2023-06-10T13:58:43;6.18;;;3.53;;
77826;SDS011;67016;42.508;25.678;2023-06-10T14:01:09;7.70;;;4.03;;
77826;SDS011;67016;42.508;25.678;2023-06-10T14:03:35;7.88;;;3.83;;
77826;SDS011;67016;42.508;25.678;2023-06-10T14:06:01;6.57;;;3.90;;
77826;SDS011;67016;42.508;25.678;2023-06-10T14:08:27;4.18;;;3.60;;
77826;SDS011;67016;42.508;25.678;2023-06-10T14:10:53;3.30;;;2.97;;
77826;SDS011;67016;42.508;25.678;2023-06-10T14:13:18;5.72;;;3.65;;
77826;SDS011;67016;42.508;25.678;2023-06-10T14:15:44;5.85;;;3.65;;
77826;SDS011;67016;42.508;25.678;2023-06-10T14:18:10;12.65;;;4.82;;
77826;SDS011;67016;42.508;25.678;2023-06-10T14:20:36;5.45;;;3.60;;
77826;SDS011;67016;42.508;25.678;2023-06-10T14:23:02;4.07;;;3.67;;
77826;SDS011;67016;42.508;25.678;2023-06-10T14:25:28;5.47;;;3.65;;
77826;SDS011;67016;42.508;25.678;2023-06-10T14:27:53;7.22;;;4.30;;
77826;SDS011;67016;42.508;25.678;2023-06-10T14:30:19;8.32;;;4.80;;
77826;SDS011;67016;42.508;25.678;2023-06-10T14:32:45;7.85;;;4.30;;
77826;SDS011;67016;42.508;25.678;2023-06-10T14:35:11;8.80;;;4.72;;
77826;SDS011;67016;42.508;25.678;2023-06-10T14:37:36;5.00;;;4.50;;
77826;SDS011;67016;42.508;25.678;2023-06-10T14:40:05;12.10;;;4.93;;
77826;SDS011;67016;42.508;25.678;2023-06-10T14:42:31;8.75;;;5.30;;
77826;SDS011;67016;42.508;25.678;2023-06-10T14:44:57;10.02;;;5.10;;
77826;SDS011;67016;42.508;25.678;2023-06-10T14:47:23;9.38;;;5.20;;
77826;SDS011;67016;42.508;25.678;2023-06-10T14:49:49;16.75;;;5.20;;
77826;SDS011;67016;42.508;25.678;2023-06-10T14:52:15;6.25;;;4.53;;